Overview Statistics Trail Chart Weather Telemetry Raw packets
 

This is the latest recevied weather packets stored in our database for station/object MeshWX-1. If no packets are shown the sender has not sent any weather packets the latest 10 day(s).

<< 16 17 18 19 20 21 22 >>
Time Temp. Humidity Pressure Rain* Wind** Luminosity Snow
1788299232 25° C 48% 999.8 hPa - - - -
1788298162 25.56° C 49% 999.6 hPa - - - -
1788298101 25.56° C 49% 999.6 hPa - - - -
1788297179 25.56° C 49% 999.6 hPa - - - -
1788296122 25.56° C 50% 999.8 hPa - - - -
1788296061 25.56° C 50% 999.8 hPa - - - -
1788295199 25.56° C 50% 999.8 hPa - - - -
1788294141 26.11° C 49% 999.6 hPa - - - -
1788294081 26.11° C 49% 999.6 hPa - - - -
1788293255 26.11° C 49% 999.6 hPa - - - -
1788293220 26.67° C 48% 999.3 hPa - - - -
1788292221 26.67° C 48% 999.3 hPa - - - -
1788292163 26.67° C 48% 999.3 hPa - - - -
1788291365 26.67° C 48% 999.3 hPa - - - -
1788290241 27.78° C 46% 999.2 hPa - - - -
1788290181 27.78° C 46% 999.2 hPa - - - -
1788289439 27.78° C 46% 999.2 hPa - - - -
1788289421 27.78° C 46% 999.2 hPa - - - -
1788288142 28.33° C 44% 998.6 hPa - - - -
1788288080 28.33° C 44% 998.6 hPa - - - -
1788287314 28.33° C 44% 998.6 hPa - - - -
1788285981 29.44° C 41% 998.2 hPa - - - -
1788285920 29.44° C 41% 998.2 hPa - - - -
1788285227 29.44° C 41% 998.2 hPa - - - -
1788285154 29.44° C 41% 998.2 hPa - - - -

* Rain since midnight (hover to see other rain measurements)
** Current wind speed in m/s (hover to see current wind gust speed)